sensor_id;sensor_type;location;lat;lon;timestamp;P1;durP1;ratioP1;P2;durP2;ratioP2
53961;SDS011;39868;53.398;6.564;2023-02-02T00:02:15;13.50;;;2.30;;
53961;SDS011;39868;53.398;6.564;2023-02-02T00:04:42;4.97;;;1.90;;
53961;SDS011;39868;53.398;6.564;2023-02-02T00:07:09;9.40;;;2.00;;
53961;SDS011;39868;53.398;6.564;2023-02-02T00:09:37;10.37;;;2.23;;
53961;SDS011;39868;53.398;6.564;2023-02-02T00:12:04;10.97;;;2.40;;
53961;SDS011;39868;53.398;6.564;2023-02-02T00:14:31;11.57;;;2.27;;
53961;SDS011;39868;53.398;6.564;2023-02-02T00:16:59;16.80;;;2.80;;
53961;SDS011;39868;53.398;6.564;2023-02-02T00:19:27;7.07;;;2.50;;
53961;SDS011;39868;53.398;6.564;2023-02-02T00:21:59;7.55;;;2.13;;
53961;SDS011;39868;53.398;6.564;2023-02-02T00:24:26;7.27;;;2.60;;
53961;SDS011;39868;53.398;6.564;2023-02-02T00:26:56;13.43;;;2.57;;
53961;SDS011;39868;53.398;6.564;2023-02-02T00:29:26;5.43;;;2.00;;
53961;SDS011;39868;53.398;6.564;2023-02-02T00:31:55;14.00;;;2.53;;
53961;SDS011;39868;53.398;6.564;2023-02-02T00:34:23;7.37;;;2.33;;
53961;SDS011;39868;53.398;6.564;2023-02-02T00:36:51;6.60;;;2.17;;
53961;SDS011;39868;53.398;6.564;2023-02-02T00:39:22;6.73;;;1.93;;
53961;SDS011;39868;53.398;6.564;2023-02-02T00:41:53;16.10;;;3.13;;
53961;SDS011;39868;53.398;6.564;2023-02-02T00:44:20;11.30;;;2.63;;
53961;SDS011;39868;53.398;6.564;2023-02-02T00:47:07;9.63;;;1.90;;
53961;SDS011;39868;53.398;6.564;2023-02-02T00:49:35;8.37;;;1.70;;
53961;SDS011;39868;53.398;6.564;2023-02-02T00:52:02;8.53;;;1.77;;
53961;SDS011;39868;53.398;6.564;2023-02-02T00:54:29;4.93;;;2.10;;
53961;SDS011;39868;53.398;6.564;2023-02-02T00:56:57;8.67;;;1.80;;
53961;SDS011;39868;53.398;6.564;2023-02-02T00:59:24;11.40;;;2.23;;
53961;SDS011;39868;53.398;6.564;2023-02-02T01:01:51;7.87;;;2.10;;
53961;SDS011;39868;53.398;6.564;2023-02-02T01:04:19;6.30;;;2.00;;
53961;SDS011;39868;53.398;6.564;2023-02-02T01:06:46;13.30;;;3.00;;
53961;SDS011;39868;53.398;6.564;2023-02-02T01:09:13;8.10;;;2.33;;
53961;SDS011;39868;53.398;6.564;2023-02-02T01:11:41;8.90;;;2.00;;
53961;SDS011;39868;53.398;6.564;2023-02-02T01:14:08;15.67;;;2.93;;
53961;SDS011;39868;53.398;6.564;2023-02-02T01:16:35;12.73;;;2.57;;
53961;SDS011;39868;53.398;6.564;2023-02-02T01:19:03;6.63;;;2.67;;
53961;SDS011;39868;53.398;6.564;2023-02-02T01:21:30;9.13;;;2.23;;
53961;SDS011;39868;53.398;6.564;2023-02-02T01:23:57;17.03;;;3.67;;
53961;SDS011;39868;53.398;6.564;2023-02-02T01:26:25;6.23;;;2.03;;
53961;SDS011;39868;53.398;6.564;2023-02-02T01:28:53;11.90;;;1.97;;
53961;SDS011;39868;53.398;6.564;2023-02-02T01:31:22;8.17;;;2.30;;
53961;SDS011;39868;53.398;6.564;2023-02-02T01:33:56;10.07;;;2.53;;
53961;SDS011;39868;53.398;6.564;2023-02-02T01:36:24;11.10;;;2.93;;
53961;SDS011;39868;53.398;6.564;2023-02-02T01:38:51;19.57;;;2.87;;
53961;SDS011;39868;53.398;6.564;2023-02-02T01:41:21;14.23;;;2.67;;
53961;SDS011;39868;53.398;6.564;2023-02-02T01:43:55;13.02;;;2.17;;
53961;SDS011;39868;53.398;6.564;2023-02-02T01:46:31;14.30;;;2.97;;
53961;SDS011;39868;53.398;6.564;2023-02-02T01:49:02;12.98;;;2.55;;
53961;SDS011;39868;53.398;6.564;2023-02-02T01:51:41;15.03;;;2.43;;
53961;SDS011;39868;53.398;6.564;2023-02-02T01:54:15;9.80;;;2.90;;
53961;SDS011;39868;53.398;6.564;2023-02-02T01:59:18;8.80;;;1.90;;
53961;SDS011;39868;53.398;6.564;2023-02-02T02:01:45;12.60;;;2.50;;
53961;SDS011;39868;53.398;6.564;2023-02-02T02:04:14;12.00;;;2.30;;
53961;SDS011;39868;53.398;6.564;2023-02-02T02:06:43;10.10;;;2.50;;
53961;SDS011;39868;53.398;6.564;2023-02-02T02:09:11;8.87;;;2.60;;
53961;SDS011;39868;53.398;6.564;2023-02-02T02:11:39;7.67;;;2.37;;
53961;SDS011;39868;53.398;6.564;2023-02-02T02:14:07;7.63;;;1.83;;
53961;SDS011;39868;53.398;6.564;2023-02-02T02:32:49;10.87;;;3.20;;
53961;SDS011;39868;53.398;6.564;2023-02-02T02:38:22;14.53;;;3.07;;
53961;SDS011;39868;53.398;6.564;2023-02-02T02:40:57;14.00;;;1.90;;
53961;SDS011;39868;53.398;6.564;2023-02-02T02:43:30;10.00;;;2.20;;
53961;SDS011;39868;53.398;6.564;2023-02-02T02:46:21;6.07;;;2.07;;
53961;SDS011;39868;53.398;6.564;2023-02-02T02:48:50;14.80;;;2.20;;
53961;SDS011;39868;53.398;6.564;2023-02-02T02:54:11;16.40;;;3.40;;
53961;SDS011;39868;53.398;6.564;2023-02-02T02:56:58;14.17;;;2.73;;
53961;SDS011;39868;53.398;6.564;2023-02-02T03:00:14;13.07;;;2.40;;
53961;SDS011;39868;53.398;6.564;2023-02-02T03:02:38;9.10;;;2.70;;
53961;SDS011;39868;53.398;6.564;2023-02-02T03:10:36;10.77;;;2.93;;
53961;SDS011;39868;53.398;6.564;2023-02-02T03:13:06;14.07;;;2.93;;
53961;SDS011;39868;53.398;6.564;2023-02-02T03:15:36;14.37;;;3.57;;
53961;SDS011;39868;53.398;6.564;2023-02-02T03:18:07;7.30;;;2.13;;
53961;SDS011;39868;53.398;6.564;2023-02-02T03:20:34;6.70;;;2.07;;
53961;SDS011;39868;53.398;6.564;2023-02-02T03:23:01;17.97;;;3.10;;
53961;SDS011;39868;53.398;6.564;2023-02-02T03:25:29;12.13;;;2.40;;
53961;SDS011;39868;53.398;6.564;2023-02-02T03:27:56;11.83;;;2.53;;
53961;SDS011;39868;53.398;6.564;2023-02-02T03:30:24;8.93;;;1.90;;
53961;SDS011;39868;53.398;6.564;2023-02-02T03:32:52;12.03;;;2.57;;
53961;SDS011;39868;53.398;6.564;2023-02-02T03:35:19;9.30;;;2.57;;
53961;SDS011;39868;53.398;6.564;2023-02-02T03:37:47;7.67;;;1.90;;
53961;SDS011;39868;53.398;6.564;2023-02-02T03:40:15;6.40;;;2.37;;
53961;SDS011;39868;53.398;6.564;2023-02-02T03:42:42;7.97;;;2.50;;
53961;SDS011;39868;53.398;6.564;2023-02-02T03:45:09;6.40;;;2.63;;
53961;SDS011;39868;53.398;6.564;2023-02-02T03:47:37;10.60;;;2.47;;
53961;SDS011;39868;53.398;6.564;2023-02-02T03:50:05;9.27;;;2.70;;
53961;SDS011;39868;53.398;6.564;2023-02-02T03:52:35;8.63;;;2.47;;
53961;SDS011;39868;53.398;6.564;2023-02-02T03:55:02;15.30;;;2.53;;
53961;SDS011;39868;53.398;6.564;2023-02-02T03:57:31;14.13;;;2.23;;
53961;SDS011;39868;53.398;6.564;2023-02-02T03:59:58;11.27;;;2.47;;
53961;SDS011;39868;53.398;6.564;2023-02-02T04:02:25;14.83;;;3.50;;
53961;SDS011;39868;53.398;6.564;2023-02-02T04:04:53;10.40;;;2.27;;
53961;SDS011;39868;53.398;6.564;2023-02-02T04:07:20;10.77;;;2.97;;
53961;SDS011;39868;53.398;6.564;2023-02-02T04:09:47;8.03;;;2.23;;
53961;SDS011;39868;53.398;6.564;2023-02-02T04:12:15;7.10;;;2.13;;
53961;SDS011;39868;53.398;6.564;2023-02-02T04:14:42;12.67;;;2.10;;
53961;SDS011;39868;53.398;6.564;2023-02-02T04:17:09;7.67;;;1.87;;
53961;SDS011;39868;53.398;6.564;2023-02-02T04:19:37;12.93;;;2.20;;
53961;SDS011;39868;53.398;6.564;2023-02-02T04:22:04;10.67;;;2.30;;
53961;SDS011;39868;53.398;6.564;2023-02-02T04:24:31;10.67;;;2.63;;
53961;SDS011;39868;53.398;6.564;2023-02-02T04:26:59;10.60;;;2.23;;
53961;SDS011;39868;53.398;6.564;2023-02-02T04:29:26;7.80;;;1.90;;
53961;SDS011;39868;53.398;6.564;2023-02-02T04:31:53;5.70;;;2.03;;
53961;SDS011;39868;53.398;6.564;2023-02-02T04:34:21;6.07;;;1.67;;
53961;SDS011;39868;53.398;6.564;2023-02-02T04:36:48;7.23;;;1.43;;
53961;SDS011;39868;53.398;6.564;2023-02-02T04:39:16;10.23;;;1.50;;
53961;SDS011;39868;53.398;6.564;2023-02-02T04:41:43;9.60;;;1.63;;
53961;SDS011;39868;53.398;6.564;2023-02-02T04:44:12;5.33;;;1.10;;
53961;SDS011;39868;53.398;6.564;2023-02-02T04:46:43;7.18;;;1.80;;
53961;SDS011;39868;53.398;6.564;2023-02-02T04:49:11;4.77;;;1.20;;
53961;SDS011;39868;53.398;6.564;2023-02-02T04:51:38;2.47;;;1.07;;
53961;SDS011;39868;53.398;6.564;2023-02-02T04:54:06;4.67;;;1.33;;
53961;SDS011;39868;53.398;6.564;2023-02-02T04:56:34;2.93;;;0.80;;
53961;SDS011;39868;53.398;6.564;2023-02-02T04:59:01;3.43;;;0.90;;
53961;SDS011;39868;53.398;6.564;2023-02-02T05:01:29;4.70;;;0.93;;
53961;SDS011;39868;53.398;6.564;2023-02-02T05:03:56;3.40;;;1.27;;
53961;SDS011;39868;53.398;6.564;2023-02-02T05:06:24;7.50;;;1.20;;
53961;SDS011;39868;53.398;6.564;2023-02-02T05:09:00;6.30;;;1.67;;
53961;SDS011;39868;53.398;6.564;2023-02-02T05:11:27;4.50;;;1.20;;
53961;SDS011;39868;53.398;6.564;2023-02-02T05:13:56;6.93;;;1.33;;
53961;SDS011;39868;53.398;6.564;2023-02-02T05:16:23;4.73;;;1.43;;
53961;SDS011;39868;53.398;6.564;2023-02-02T05:18:55;5.30;;;1.00;;
53961;SDS011;39868;53.398;6.564;2023-02-02T05:21:23;7.77;;;1.40;;
53961;SDS011;39868;53.398;6.564;2023-02-02T05:23:51;9.67;;;1.40;;
53961;SDS011;39868;53.398;6.564;2023-02-02T05:26:20;5.67;;;1.10;;
53961;SDS011;39868;53.398;6.564;2023-02-02T05:28:49;17.63;;;2.33;;
53961;SDS011;39868;53.398;6.564;2023-02-02T05:31:16;4.97;;;1.23;;
53961;SDS011;39868;53.398;6.564;2023-02-02T05:33:44;4.37;;;1.30;;
53961;SDS011;39868;53.398;6.564;2023-02-02T05:36:12;6.27;;;1.50;;
53961;SDS011;39868;53.398;6.564;2023-02-02T05:38:39;9.67;;;1.97;;
53961;SDS011;39868;53.398;6.564;2023-02-02T05:41:06;6.83;;;1.27;;
53961;SDS011;39868;53.398;6.564;2023-02-02T05:43:34;2.20;;;1.20;;
53961;SDS011;39868;53.398;6.564;2023-02-02T05:46:01;2.87;;;1.00;;
53961;SDS011;39868;53.398;6.564;2023-02-02T05:48:29;3.07;;;1.27;;
53961;SDS011;39868;53.398;6.564;2023-02-02T05:53:37;5.10;;;1.10;;
53961;SDS011;39868;53.398;6.564;2023-02-02T05:56:04;7.67;;;1.50;;
53961;SDS011;39868;53.398;6.564;2023-02-02T05:58:32;6.47;;;1.40;;
53961;SDS011;39868;53.398;6.564;2023-02-02T06:00:59;3.33;;;1.10;;
53961;SDS011;39868;53.398;6.564;2023-02-02T06:03:27;5.10;;;1.37;;
53961;SDS011;39868;53.398;6.564;2023-02-02T06:05:54;3.53;;;1.10;;
53961;SDS011;39868;53.398;6.564;2023-02-02T06:08:22;5.53;;;1.13;;
53961;SDS011;39868;53.398;6.564;2023-02-02T06:10:49;5.20;;;1.03;;
53961;SDS011;39868;53.398;6.564;2023-02-02T06:13:16;2.67;;;1.27;;
53961;SDS011;39868;53.398;6.564;2023-02-02T06:15:44;4.37;;;1.03;;
53961;SDS011;39868;53.398;6.564;2023-02-02T06:18:11;3.40;;;1.27;;
53961;SDS011;39868;53.398;6.564;2023-02-02T06:20:39;3.03;;;1.23;;
53961;SDS011;39868;53.398;6.564;2023-02-02T06:23:06;2.00;;;0.67;;
53961;SDS011;39868;53.398;6.564;2023-02-02T06:25:34;0.93;;;0.90;;
53961;SDS011;39868;53.398;6.564;2023-02-02T06:28:01;2.23;;;1.00;;
53961;SDS011;39868;53.398;6.564;2023-02-02T06:30:29;4.53;;;1.23;;
53961;SDS011;39868;53.398;6.564;2023-02-02T06:32:57;6.17;;;1.37;;
53961;SDS011;39868;53.398;6.564;2023-02-02T06:35:26;2.27;;;1.20;;
53961;SDS011;39868;53.398;6.564;2023-02-02T06:37:53;0.80;;;0.80;;
53961;SDS011;39868;53.398;6.564;2023-02-02T06:40:20;3.83;;;0.90;;
53961;SDS011;39868;53.398;6.564;2023-02-02T06:42:53;3.40;;;1.00;;
53961;SDS011;39868;53.398;6.564;2023-02-02T06:45:25;4.07;;;0.83;;
53961;SDS011;39868;53.398;6.564;2023-02-02T06:47:53;1.10;;;0.97;;
53961;SDS011;39868;53.398;6.564;2023-02-02T06:50:26;3.58;;;1.13;;
53961;SDS011;39868;53.398;6.564;2023-02-02T06:52:53;3.53;;;1.20;;
53961;SDS011;39868;53.398;6.564;2023-02-02T06:55:21;3.60;;;1.50;;
53961;SDS011;39868;53.398;6.564;2023-02-02T06:57:53;5.57;;;1.30;;
53961;SDS011;39868;53.398;6.564;2023-02-02T07:00:26;6.20;;;2.07;;
53961;SDS011;39868;53.398;6.564;2023-02-02T07:02:55;2.90;;;1.40;;
53961;SDS011;39868;53.398;6.564;2023-02-02T07:05:22;1.90;;;1.17;;
53961;SDS011;39868;53.398;6.564;2023-02-02T07:07:50;2.40;;;1.13;;
53961;SDS011;39868;53.398;6.564;2023-02-02T07:10:18;1.50;;;1.00;;
53961;SDS011;39868;53.398;6.564;2023-02-02T07:13:05;4.20;;;1.40;;
53961;SDS011;39868;53.398;6.564;2023-02-02T07:15:33;5.30;;;1.10;;
53961;SDS011;39868;53.398;6.564;2023-02-02T07:18:00;5.43;;;1.23;;
53961;SDS011;39868;53.398;6.564;2023-02-02T07:20:27;5.83;;;1.50;;
53961;SDS011;39868;53.398;6.564;2023-02-02T07:22:55;2.87;;;1.60;;
53961;SDS011;39868;53.398;6.564;2023-02-02T07:25:22;3.93;;;1.47;;
53961;SDS011;39868;53.398;6.564;2023-02-02T07:27:53;6.50;;;1.53;;
53961;SDS011;39868;53.398;6.564;2023-02-02T07:30:20;4.33;;;1.50;;
53961;SDS011;39868;53.398;6.564;2023-02-02T07:32:48;6.67;;;1.57;;
53961;SDS011;39868;53.398;6.564;2023-02-02T07:35:16;4.20;;;1.33;;
53961;SDS011;39868;53.398;6.564;2023-02-02T07:37:43;2.37;;;1.30;;
53961;SDS011;39868;53.398;6.564;2023-02-02T07:40:16;5.10;;;1.27;;
53961;SDS011;39868;53.398;6.564;2023-02-02T07:42:46;3.77;;;1.37;;
53961;SDS011;39868;53.398;6.564;2023-02-02T07:45:14;3.93;;;1.60;;
53961;SDS011;39868;53.398;6.564;2023-02-02T07:47:56;3.07;;;1.40;;
53961;SDS011;39868;53.398;6.564;2023-02-02T07:50:27;5.57;;;1.13;;
53961;SDS011;39868;53.398;6.564;2023-02-02T07:52:57;4.63;;;1.90;;
53961;SDS011;39868;53.398;6.564;2023-02-02T07:55:26;1.70;;;1.23;;
53961;SDS011;39868;53.398;6.564;2023-02-02T07:57:54;7.50;;;1.63;;
53961;SDS011;39868;53.398;6.564;2023-02-02T08:00:24;5.17;;;1.90;;
53961;SDS011;39868;53.398;6.564;2023-02-02T08:02:52;4.60;;;1.43;;
53961;SDS011;39868;53.398;6.564;2023-02-02T08:05:19;6.40;;;1.53;;
53961;SDS011;39868;53.398;6.564;2023-02-02T08:07:48;5.80;;;1.40;;
53961;SDS011;39868;53.398;6.564;2023-02-02T08:10:16;3.87;;;1.47;;
53961;SDS011;39868;53.398;6.564;2023-02-02T08:12:43;4.90;;;1.40;;
53961;SDS011;39868;53.398;6.564;2023-02-02T08:15:10;2.33;;;1.50;;
53961;SDS011;39868;53.398;6.564;2023-02-02T08:17:38;7.33;;;1.50;;
53961;SDS011;39868;53.398;6.564;2023-02-02T08:20:05;6.60;;;1.57;;
53961;SDS011;39868;53.398;6.564;2023-02-02T08:22:33;9.17;;;1.87;;
53961;SDS011;39868;53.398;6.564;2023-02-02T08:25:00;5.40;;;1.90;;
53961;SDS011;39868;53.398;6.564;2023-02-02T08:27:27;8.33;;;1.87;;
53961;SDS011;39868;53.398;6.564;2023-02-02T08:29:55;6.33;;;2.03;;
53961;SDS011;39868;53.398;6.564;2023-02-02T08:32:22;11.17;;;2.33;;
53961;SDS011;39868;53.398;6.564;2023-02-02T08:34:50;4.67;;;2.20;;
53961;SDS011;39868;53.398;6.564;2023-02-02T08:37:17;6.37;;;2.10;;
53961;SDS011;39868;53.398;6.564;2023-02-02T08:39:44;5.63;;;1.70;;
53961;SDS011;39868;53.398;6.564;2023-02-02T08:42:12;8.13;;;2.07;;
53961;SDS011;39868;53.398;6.564;2023-02-02T08:44:39;4.00;;;1.47;;
53961;SDS011;39868;53.398;6.564;2023-02-02T08:47:30;6.00;;;1.70;;
53961;SDS011;39868;53.398;6.564;2023-02-02T08:49:57;6.93;;;2.27;;
53961;SDS011;39868;53.398;6.564;2023-02-02T08:52:24;4.23;;;1.40;;
53961;SDS011;39868;53.398;6.564;2023-02-02T08:54:52;7.57;;;1.60;;
53961;SDS011;39868;53.398;6.564;2023-02-02T08:57:19;3.57;;;1.33;;
53961;SDS011;39868;53.398;6.564;2023-02-02T08:59:46;7.50;;;1.57;;
53961;SDS011;39868;53.398;6.564;2023-02-02T09:02:14;4.60;;;1.20;;
53961;SDS011;39868;53.398;6.564;2023-02-02T09:04:42;3.07;;;1.43;;
53961;SDS011;39868;53.398;6.564;2023-02-02T09:07:11;2.67;;;1.10;;
53961;SDS011;39868;53.398;6.564;2023-02-02T09:09:38;5.40;;;1.87;;
53961;SDS011;39868;53.398;6.564;2023-02-02T09:12:06;3.30;;;1.40;;
53961;SDS011;39868;53.398;6.564;2023-02-02T09:14:33;3.60;;;1.53;;
53961;SDS011;39868;53.398;6.564;2023-02-02T09:17:00;5.07;;;1.50;;
53961;SDS011;39868;53.398;6.564;2023-02-02T09:19:28;5.60;;;1.43;;
53961;SDS011;39868;53.398;6.564;2023-02-02T09:21:55;3.80;;;1.50;;
53961;SDS011;39868;53.398;6.564;2023-02-02T09:24:23;2.55;;;1.27;;
53961;SDS011;39868;53.398;6.564;2023-02-02T09:26:50;4.50;;;1.23;;
53961;SDS011;39868;53.398;6.564;2023-02-02T09:29:18;5.10;;;1.30;;
53961;SDS011;39868;53.398;6.564;2023-02-02T09:31:45;7.13;;;1.67;;
53961;SDS011;39868;53.398;6.564;2023-02-02T09:34:13;1.55;;;1.05;;
53961;SDS011;39868;53.398;6.564;2023-02-02T09:36:41;2.17;;;1.17;;
53961;SDS011;39868;53.398;6.564;2023-02-02T09:39:10;1.13;;;1.00;;
53961;SDS011;39868;53.398;6.564;2023-02-02T09:52:39;5.70;;;1.25;;
53961;SDS011;39868;53.398;6.564;2023-02-02T09:55:15;2.10;;;1.30;;
53961;SDS011;39868;53.398;6.564;2023-02-02T09:57:52;3.13;;;1.20;;
53961;SDS011;39868;53.398;6.564;2023-02-02T10:00:42;4.93;;;1.17;;
53961;SDS011;39868;53.398;6.564;2023-02-02T10:03:18;4.65;;;1.08;;
53961;SDS011;39868;53.398;6.564;2023-02-02T10:06:13;2.22;;;1.27;;
53961;SDS011;39868;53.398;6.564;2023-02-02T10:09:32;6.13;;;1.42;;
53961;SDS011;39868;53.398;6.564;2023-02-02T10:15:28;4.15;;;1.08;;
53961;SDS011;39868;53.398;6.564;2023-02-02T10:18:11;1.00;;;0.90;;
53961;SDS011;39868;53.398;6.564;2023-02-02T10:20:46;3.78;;;1.30;;
53961;SDS011;39868;53.398;6.564;2023-02-02T10:23:38;2.40;;;1.10;;
53961;SDS011;39868;53.398;6.564;2023-02-02T10:26:17;3.63;;;0.80;;
53961;SDS011;39868;53.398;6.564;2023-02-02T10:29:17;4.50;;;1.00;;
53961;SDS011;39868;53.398;6.564;2023-02-02T10:37:53;1.65;;;1.05;;
53961;SDS011;39868;53.398;6.564;2023-02-02T10:45:58;3.80;;;1.10;;
53961;SDS011;39868;53.398;6.564;2023-02-02T10:48:32;6.22;;;1.42;;
53961;SDS011;39868;53.398;6.564;2023-02-02T10:51:10;2.38;;;0.90;;
53961;SDS011;39868;53.398;6.564;2023-02-02T10:53:52;5.34;;;1.10;;
53961;SDS011;39868;53.398;6.564;2023-02-02T10:56:29;1.42;;;0.82;;
53961;SDS011;39868;53.398;6.564;2023-02-02T10:59:08;2.63;;;0.70;;
53961;SDS011;39868;53.398;6.564;2023-02-02T11:01:41;1.95;;;0.90;;
53961;SDS011;39868;53.398;6.564;2023-02-02T11:04:08;2.17;;;1.17;;
53961;SDS011;39868;53.398;6.564;2023-02-02T11:06:55;7.63;;;1.23;;
53961;SDS011;39868;53.398;6.564;2023-02-02T11:09:25;2.35;;;1.00;;
53961;SDS011;39868;53.398;6.564;2023-02-02T11:15:01;3.43;;;0.93;;
53961;SDS011;39868;53.398;6.564;2023-02-02T11:17:33;2.85;;;0.80;;
53961;SDS011;39868;53.398;6.564;2023-02-02T11:20:01;1.65;;;1.00;;
53961;SDS011;39868;53.398;6.564;2023-02-02T11:22:58;3.90;;;1.25;;
53961;SDS011;39868;53.398;6.564;2023-02-02T11:25:32;3.10;;;0.98;;
53961;SDS011;39868;53.398;6.564;2023-02-02T11:28:09;3.47;;;1.17;;
53961;SDS011;39868;53.398;6.564;2023-02-02T11:30:46;4.00;;;0.77;;
53961;SDS011;39868;53.398;6.564;2023-02-02T11:36:20;2.05;;;0.77;;
53961;SDS011;39868;53.398;6.564;2023-02-02T11:38:47;2.22;;;0.70;;
53961;SDS011;39868;53.398;6.564;2023-02-02T11:41:15;3.10;;;1.00;;
53961;SDS011;39868;53.398;6.564;2023-02-02T11:43:49;2.05;;;0.85;;
53961;SDS011;39868;53.398;6.564;2023-02-02T11:46:19;7.30;;;1.20;;
53961;SDS011;39868;53.398;6.564;2023-02-02T11:49:00;1.67;;;0.85;;
53961;SDS011;39868;53.398;6.564;2023-02-02T11:51:35;1.65;;;0.73;;
53961;SDS011;39868;53.398;6.564;2023-02-02T11:54:22;2.33;;;0.85;;
53961;SDS011;39868;53.398;6.564;2023-02-02T11:56:55;2.67;;;1.00;;
53961;SDS011;39868;53.398;6.564;2023-02-02T11:59:30;1.23;;;0.80;;
53961;SDS011;39868;53.398;6.564;2023-02-02T12:07:32;2.80;;;0.70;;
53961;SDS011;39868;53.398;6.564;2023-02-02T12:10:00;3.42;;;0.90;;
53961;SDS011;39868;53.398;6.564;2023-02-02T12:18:24;0.73;;;0.73;;
53961;SDS011;39868;53.398;6.564;2023-02-02T12:26:44;1.13;;;0.70;;
53961;SDS011;39868;53.398;6.564;2023-02-02T12:29:30;0.80;;;0.75;;
53961;SDS011;39868;53.398;6.564;2023-02-02T12:32:21;3.83;;;0.85;;
53961;SDS011;39868;53.398;6.564;2023-02-02T12:35:16;3.58;;;0.90;;
53961;SDS011;39868;53.398;6.564;2023-02-02T12:43:19;2.33;;;0.68;;
53961;SDS011;39868;53.398;6.564;2023-02-02T12:57:28;2.15;;;0.88;;
53961;SDS011;39868;53.398;6.564;2023-02-02T13:05:37;4.45;;;0.82;;
53961;SDS011;39868;53.398;6.564;2023-02-02T13:08:09;1.25;;;0.70;;
53961;SDS011;39868;53.398;6.564;2023-02-02T13:10:46;1.25;;;0.70;;
53961;SDS011;39868;53.398;6.564;2023-02-02T13:13:20;1.58;;;0.77;;
53961;SDS011;39868;53.398;6.564;2023-02-02T13:16:05;1.58;;;0.70;;
53961;SDS011;39868;53.398;6.564;2023-02-02T13:18:47;0.88;;;0.70;;
53961;SDS011;39868;53.398;6.564;2023-02-02T13:21:33;2.35;;;0.70;;
53961;SDS011;39868;53.398;6.564;2023-02-02T13:24:04;0.75;;;0.50;;
53961;SDS011;39868;53.398;6.564;2023-02-02T13:26:35;1.35;;;0.82;;
53961;SDS011;39868;53.398;6.564;2023-02-02T13:31:40;1.85;;;0.85;;
53961;SDS011;39868;53.398;6.564;2023-02-02T13:34:37;4.70;;;0.77;;
53961;SDS011;39868;53.398;6.564;2023-02-02T13:40:15;2.15;;;0.80;;
53961;SDS011;39868;53.398;6.564;2023-02-02T13:43:02;0.88;;;0.60;;
53961;SDS011;39868;53.398;6.564;2023-02-02T13:45:40;1.73;;;0.90;;
53961;SDS011;39868;53.398;6.564;2023-02-02T13:55:33;0.75;;;0.45;;
53961;SDS011;39868;53.398;6.564;2023-02-02T13:57:50;1.50;;;0.65;;
53961;SDS011;39868;53.398;6.564;2023-02-02T14:00:32;1.33;;;0.73;;
53961;SDS011;39868;53.398;6.564;2023-02-02T14:08:34;1.08;;;0.68;;
53961;SDS011;39868;53.398;6.564;2023-02-02T14:11:03;1.15;;;0.90;;
53961;SDS011;39868;53.398;6.564;2023-02-02T14:13:39;1.42;;;0.50;;
53961;SDS011;39868;53.398;6.564;2023-02-02T14:19:05;3.47;;;0.70;;
53961;SDS011;39868;53.398;6.564;2023-02-02T14:24:41;2.15;;;0.77;;
53961;SDS011;39868;53.398;6.564;2023-02-02T14:34:59;0.90;;;0.73;;
53961;SDS011;39868;53.398;6.564;2023-02-02T14:37:57;2.97;;;0.98;;
53961;SDS011;39868;53.398;6.564;2023-02-02T14:40:41;2.15;;;1.10;;
53961;SDS011;39868;53.398;6.564;2023-02-02T14:48:46;2.30;;;1.08;;
53961;SDS011;39868;53.398;6.564;2023-02-02T14:51:15;2.22;;;1.30;;
53961;SDS011;39868;53.398;6.564;2023-02-02T14:53:49;1.75;;;1.20;;
53961;SDS011;39868;53.398;6.564;2023-02-02T14:56:37;2.55;;;1.33;;
53961;SDS011;39868;53.398;6.564;2023-02-02T14:59:16;3.08;;;1.60;;
53961;SDS011;39868;53.398;6.564;2023-02-02T15:01:52;4.40;;;1.27;;
53961;SDS011;39868;53.398;6.564;2023-02-02T15:04:39;2.53;;;1.30;;
53961;SDS011;39868;53.398;6.564;2023-02-02T15:09:52;1.83;;;1.35;;
53961;SDS011;39868;53.398;6.564;2023-02-02T15:12:30;2.50;;;1.63;;
53961;SDS011;39868;53.398;6.564;2023-02-02T15:15:11;1.58;;;1.15;;
53961;SDS011;39868;53.398;6.564;2023-02-02T15:17:45;3.00;;;1.60;;
53961;SDS011;39868;53.398;6.564;2023-02-02T15:22:54;3.88;;;1.58;;
53961;SDS011;39868;53.398;6.564;2023-02-02T15:25:29;4.28;;;1.90;;
53961;SDS011;39868;53.398;6.564;2023-02-02T15:28:16;4.43;;;1.70;;
53961;SDS011;39868;53.398;6.564;2023-02-02T15:30:56;3.72;;;1.85;;
53961;SDS011;39868;53.398;6.564;2023-02-02T15:33:41;5.60;;;2.28;;
53961;SDS011;39868;53.398;6.564;2023-02-02T15:36:26;4.82;;;2.00;;
53961;SDS011;39868;53.398;6.564;2023-02-02T15:38:58;2.33;;;1.98;;
53961;SDS011;39868;53.398;6.564;2023-02-02T15:41:33;2.83;;;1.92;;
53961;SDS011;39868;53.398;6.564;2023-02-02T15:44:19;2.75;;;2.38;;
53961;SDS011;39868;53.398;6.564;2023-02-02T15:46:52;3.22;;;2.38;;
53961;SDS011;39868;53.398;6.564;2023-02-02T15:52:02;2.33;;;2.03;;
53961;SDS011;39868;53.398;6.564;2023-02-02T15:54:38;3.05;;;2.53;;
53961;SDS011;39868;53.398;6.564;2023-02-02T15:57:34;3.05;;;2.50;;
53961;SDS011;39868;53.398;6.564;2023-02-02T16:00:22;3.88;;;2.70;;
53961;SDS011;39868;53.398;6.564;2023-02-02T16:02:58;7.85;;;3.33;;
53961;SDS011;39868;53.398;6.564;2023-02-02T16:07:58;3.20;;;2.88;;
53961;SDS011;39868;53.398;6.564;2023-02-02T16:10:32;4.20;;;3.25;;
53961;SDS011;39868;53.398;6.564;2023-02-02T16:13:00;5.45;;;3.58;;
53961;SDS011;39868;53.398;6.564;2023-02-02T16:15:29;4.50;;;3.20;;
53961;SDS011;39868;53.398;6.564;2023-02-02T16:17:58;3.67;;;3.05;;
53961;SDS011;39868;53.398;6.564;2023-02-02T16:20:27;5.43;;;3.30;;
53961;SDS011;39868;53.398;6.564;2023-02-02T16:22:58;6.20;;;4.17;;
53961;SDS011;39868;53.398;6.564;2023-02-02T16:25:31;5.27;;;3.73;;
53961;SDS011;39868;53.398;6.564;2023-02-02T16:28:02;5.43;;;3.55;;
53961;SDS011;39868;53.398;6.564;2023-02-02T16:30:34;6.55;;;3.92;;
53961;SDS011;39868;53.398;6.564;2023-02-02T16:36:00;6.28;;;4.10;;
53961;SDS011;39868;53.398;6.564;2023-02-02T16:38:35;4.07;;;3.38;;
53961;SDS011;39868;53.398;6.564;2023-02-02T16:41:08;4.10;;;3.53;;
53961;SDS011;39868;53.398;6.564;2023-02-02T16:43:38;4.00;;;3.53;;
53961;SDS011;39868;53.398;6.564;2023-02-02T16:46:10;8.05;;;4.18;;
53961;SDS011;39868;53.398;6.564;2023-02-02T16:48:57;4.15;;;3.50;;
53961;SDS011;39868;53.398;6.564;2023-02-02T16:51:26;4.53;;;3.65;;
53961;SDS011;39868;53.398;6.564;2023-02-02T16:53:59;5.28;;;3.28;;
53961;SDS011;39868;53.398;6.564;2023-02-02T16:56:38;6.65;;;3.60;;
53961;SDS011;39868;53.398;6.564;2023-02-02T16:59:14;7.13;;;4.25;;
53961;SDS011;39868;53.398;6.564;2023-02-02T17:01:48;6.68;;;4.38;;
53961;SDS011;39868;53.398;6.564;2023-02-02T17:04:30;4.18;;;3.60;;
53961;SDS011;39868;53.398;6.564;2023-02-02T17:07:05;8.07;;;4.43;;
53961;SDS011;39868;53.398;6.564;2023-02-02T17:09:37;7.85;;;3.72;;
53961;SDS011;39868;53.398;6.564;2023-02-02T17:17:47;9.65;;;4.07;;
53961;SDS011;39868;53.398;6.564;2023-02-02T17:20:15;7.50;;;4.40;;
53961;SDS011;39868;53.398;6.564;2023-02-02T17:22:47;6.50;;;4.15;;
53961;SDS011;39868;53.398;6.564;2023-02-02T17:25:26;8.48;;;4.47;;
53961;SDS011;39868;53.398;6.564;2023-02-02T17:28:00;5.78;;;3.78;;
53961;SDS011;39868;53.398;6.564;2023-02-02T17:30:29;8.27;;;4.53;;
53961;SDS011;39868;53.398;6.564;2023-02-02T17:32:57;11.52;;;4.95;;
53961;SDS011;39868;53.398;6.564;2023-02-02T17:35:24;15.00;;;5.20;;
53961;SDS011;39868;53.398;6.564;2023-02-02T17:38:00;6.82;;;4.30;;
53961;SDS011;39868;53.398;6.564;2023-02-02T17:40:31;6.68;;;4.72;;
53961;SDS011;39868;53.398;6.564;2023-02-02T17:42:59;10.32;;;4.80;;
53961;SDS011;39868;53.398;6.564;2023-02-02T17:45:31;7.78;;;5.38;;
53961;SDS011;39868;53.398;6.564;2023-02-02T17:48:00;9.07;;;5.30;;
53961;SDS011;39868;53.398;6.564;2023-02-02T17:50:28;10.38;;;5.15;;
53961;SDS011;39868;53.398;6.564;2023-02-02T17:52:57;9.32;;;4.93;;
53961;SDS011;39868;53.398;6.564;2023-02-02T17:55:46;9.05;;;5.57;;